Time;durP1;ratioP1;P1;durP2;ratioP2;P2;SDS_P1;SDS_P2;PMS_P1;PMS_P2;Temp;Humidity;BMP_temperature;BMP_pressure;BME280_temperature;BME280_humidity;BME280_pressure;Samples;Min_cycle;Max_cycle;Signal;HPM_P1;HPM_P2
2023/07/15 00:01:23;;;;;;;2.97;2.83;;;19.10;99.90;;;;;;5119034;28;20159;-79
2023/07/15 00:03:49;;;;;;;2.60;2.50;;;19.20;99.90;;;;;;5110476;28;20539;-78
2023/07/15 00:06:16;;;;;;;3.10;2.90;;;19.20;99.90;;;;;;5102950;28;20175;-78
2023/07/15 00:08:42;;;;;;;3.30;3.00;;;19.20;99.90;;;;;;5095876;28;20200;-77
2023/07/15 00:11:41;;;;;;;3.03;2.83;;;19.20;99.90;;;;;;5095691;28;20202;-77
2023/07/15 00:14:21;;;;;;;3.23;3.03;;;19.10;99.90;;;;;;5095838;28;20213;-77
2023/07/15 00:16:47;;;;;;;3.07;2.87;;;19.10;99.90;;;;;;5095618;28;20162;-77
2023/07/15 00:19:13;;;;;;;3.17;2.97;;;19.20;99.90;;;;;;5095940;28;20178;-79
2023/07/15 00:21:39;;;;;;;3.20;2.90;;;19.20;99.90;;;;;;5097971;28;20578;-78
2023/07/15 00:24:05;;;;;;;8.07;2.70;;;19.10;99.90;;;;;;5103745;28;20166;-75
2023/07/15 00:26:32;;;;;;;3.30;3.00;;;19.10;99.90;;;;;;5096401;28;20174;-75
2023/07/15 00:28:58;;;;;;;3.20;3.00;;;19.00;99.90;;;;;;5095017;28;20178;-76
2023/07/15 00:31:24;;;;;;;3.10;2.90;;;18.90;99.90;;;;;;5095548;28;20355;-77
2023/07/15 00:33:50;;;;;;;3.27;3.07;;;18.90;99.90;;;;;;5107529;28;20182;-78
2023/07/15 00:36:16;;;;;;;3.90;3.23;;;19.00;99.90;;;;;;5103773;28;20551;-78
2023/07/15 00:38:43;;;;;;;3.90;3.10;;;19.00;99.90;;;;;;5096221;28;20185;-77
2023/07/15 00:41:22;;;;;;;3.13;2.93;;;19.00;99.90;;;;;;5095217;28;20192;-79
2023/07/15 00:43:54;;;;;;;2.87;2.77;;;19.00;99.90;;;;;;5094526;28;20217;-77
2023/07/15 00:46:23;;;;;;;2.97;2.70;;;18.90;99.90;;;;;;5094998;28;20568;-75
2023/07/15 00:49:30;;;;;;;3.20;3.00;;;18.90;99.90;;;;;;5094243;28;20713;-77
2023/07/15 00:52:10;;;;;;;4.17;2.90;;;18.90;99.90;;;;;;5102198;28;20198;-80
2023/07/15 00:54:40;;;;;;;3.10;2.90;;;18.90;99.90;;;;;;5095193;28;20150;-77
2023/07/15 00:57:07;;;;;;;2.93;2.63;;;18.80;99.90;;;;;;5094886;28;20622;-77
2023/07/15 00:59:35;;;;;;;2.80;2.70;;;18.70;99.90;;;;;;5093568;28;20175;-78
2023/07/15 01:02:01;;;;;;;3.00;2.80;;;18.70;99.90;;;;;;5094128;28;20252;-78
2023/07/15 01:04:27;;;;;;;2.97;2.70;;;18.70;99.90;;;;;;5098627;28;20167;-76
2023/07/15 01:06:54;;;;;;;2.83;2.63;;;18.70;99.90;;;;;;5108860;28;20181;-79
2023/07/15 01:09:19;;;;;;;2.80;2.70;;;18.70;99.90;;;;;;5097038;28;20166;-78
2023/07/15 01:11:45;;;;;;;3.17;2.87;;;18.70;99.90;;;;;;5094464;28;20206;-78
2023/07/15 01:14:12;;;;;;;3.00;2.90;;;18.70;99.90;;;;;;5093435;28;20182;-79
2023/07/15 01:16:39;;;;;;;4.03;2.83;;;18.70;99.90;;;;;;5094867;28;20608;-78
2023/07/15 01:19:05;;;;;;;3.10;2.90;;;18.70;99.90;;;;;;5097601;28;20251;-78
2023/07/15 01:21:34;;;;;;;2.90;2.70;;;18.70;99.90;;;;;;5106238;28;20206;-77
2023/07/15 01:24:00;;;;;;;3.00;2.70;;;18.70;99.90;;;;;;5116301;28;20185;-79
2023/07/15 01:26:26;;;;;;;3.10;2.60;;;18.70;99.90;;;;;;5099360;28;20202;-77
2023/07/15 01:28:52;;;;;;;3.00;2.80;;;18.70;99.90;;;;;;5097151;28;20174;-76
2023/07/15 01:31:19;;;;;;;2.97;2.87;;;18.70;99.90;;;;;;5094006;28;20213;-76
2023/07/15 01:33:45;;;;;;;6.10;2.70;;;18.60;99.90;;;;;;5108447;28;20186;-77
2023/07/15 01:36:13;;;;;;;2.93;2.73;;;18.60;99.90;;;;;;5116682;28;20174;-76
2023/07/15 01:38:40;;;;;;;3.47;3.07;;;18.50;99.90;;;;;;5114709;28;20180;-77
2023/07/15 01:41:06;;;;;;;3.07;2.87;;;18.50;99.90;;;;;;5115303;28;20166;-77
2023/07/15 01:43:32;;;;;;;3.13;2.93;;;18.50;99.90;;;;;;5115756;28;20249;-76
2023/07/15 01:45:58;;;;;;;2.53;2.43;;;18.50;99.90;;;;;;5114241;28;20182;-78
2023/07/15 01:48:25;;;;;;;3.27;2.97;;;18.50;99.90;;;;;;5116154;28;20165;-78
2023/07/15 01:50:51;;;;;;;3.20;3.00;;;18.50;99.90;;;;;;5118101;28;20226;-76
2023/07/15 01:53:17;;;;;;;3.00;2.80;;;18.50;99.90;;;;;;5117120;28;20163;-77
2023/07/15 01:55:43;;;;;;;3.20;3.00;;;18.50;99.90;;;;;;5115359;28;20184;-75
2023/07/15 01:58:09;;;;;;;3.10;3.00;;;18.50;99.90;;;;;;5116529;28;20184;-76
2023/07/15 02:00:35;;;;;;;2.80;2.70;;;18.50;99.90;;;;;;5115731;28;20236;-77
2023/07/15 02:03:01;;;;;;;3.27;3.00;;;18.40;99.90;;;;;;5111411;28;20185;-77
2023/07/15 02:05:26;;;;;;;2.80;2.70;;;18.50;99.90;;;;;;5111541;28;20166;-78
2023/07/15 02:07:52;;;;;;;3.13;2.93;;;18.50;99.90;;;;;;5103891;28;20174;-78
2023/07/15 02:10:18;;;;;;;3.17;2.90;;;18.50;99.90;;;;;;5105194;28;20524;-78
2023/07/15 02:12:44;;;;;;;2.90;2.70;;;18.50;99.90;;;;;;5106082;28;20253;-79
2023/07/15 02:15:10;;;;;;;3.30;3.00;;;18.60;99.90;;;;;;5114017;28;20218;-78
2023/07/15 02:17:36;;;;;;;2.90;2.80;;;18.40;99.90;;;;;;5117346;28;20166;-78
2023/07/15 02:20:05;;;;;;;3.13;2.97;;;18.40;99.90;;;;;;5099643;28;20170;-77
2023/07/15 02:22:31;;;;;;;3.57;2.90;;;18.30;99.90;;;;;;5093232;28;20174;-79
2023/07/15 02:24:57;;;;;;;3.07;2.87;;;18.40;99.90;;;;;;5092194;28;20578;-78
2023/07/15 02:27:22;;;;;;;3.17;2.90;;;18.30;99.90;;;;;;5094124;28;20185;-77
2023/07/15 02:29:48;;;;;;;3.40;3.20;;;18.40;99.90;;;;;;5094222;28;20173;-77
2023/07/15 02:32:34;;;;;;;3.10;2.90;;;18.40;99.90;;;;;;5092291;28;20222;-77
2023/07/15 02:35:01;;;;;;;3.50;2.80;;;18.40;99.90;;;;;;5093893;28;20688;-77
2023/07/15 02:37:27;;;;;;;3.40;3.10;;;18.40;99.90;;;;;;5093903;28;20644;-78
2023/07/15 02:39:53;;;;;;;3.30;2.83;;;18.40;99.90;;;;;;5093823;28;20184;-77
2023/07/15 02:42:18;;;;;;;3.03;2.87;;;18.30;99.90;;;;;;5094106;28;20174;-78
2023/07/15 02:44:44;;;;;;;3.40;3.10;;;18.40;99.90;;;;;;5095124;28;20597;-77
2023/07/15 02:47:10;;;;;;;3.07;2.97;;;18.40;99.90;;;;;;5094887;28;20175;-78
2023/07/15 02:49:36;;;;;;;3.37;3.07;;;18.20;99.90;;;;;;5093912;28;20211;-77
2023/07/15 02:52:02;;;;;;;3.53;3.00;;;18.30;99.90;;;;;;5097644;28;20202;-80
2023/07/15 02:54:28;;;;;;;3.27;3.07;;;18.30;99.90;;;;;;5099616;28;20166;-79
2023/07/15 02:56:55;;;;;;;4.90;3.10;;;18.30;99.90;;;;;;5092762;28;20177;-77
2023/07/15 02:59:22;;;;;;;3.50;3.30;;;18.30;99.90;;;;;;5093332;28;20177;-77
2023/07/15 03:01:48;;;;;;;3.50;3.20;;;18.30;99.90;;;;;;5097882;28;20200;-76
2023/07/15 03:04:14;;;;;;;4.03;2.97;;;18.30;99.90;;;;;;5108639;28;20174;-79
2023/07/15 03:06:41;;;;;;;3.40;3.20;;;18.20;99.90;;;;;;5093683;28;20178;-79
2023/07/15 03:09:07;;;;;;;3.60;3.40;;;18.20;99.90;;;;;;5093210;28;20625;-78
2023/07/15 03:11:33;;;;;;;3.53;3.30;;;18.20;99.90;;;;;;5095723;28;20198;-78
2023/07/15 03:13:58;;;;;;;3.50;3.27;;;18.20;99.90;;;;;;5097815;28;20174;-79
2023/07/15 03:16:24;;;;;;;3.43;3.13;;;18.20;99.90;;;;;;5098132;28;20599;-79
2023/07/15 03:18:50;;;;;;;2.93;2.73;;;18.20;99.90;;;;;;5096835;28;20537;-78
2023/07/15 03:21:15;;;;;;;3.03;2.83;;;18.10;99.90;;;;;;5096317;28;20178;-79
2023/07/15 03:23:41;;;;;;;2.70;2.60;;;18.10;99.90;;;;;;5097502;28;20177;-77
2023/07/15 03:26:07;;;;;;;3.10;2.90;;;18.00;99.90;;;;;;5097369;28;20224;-81
2023/07/15 03:28:33;;;;;;;3.63;3.33;;;17.90;99.90;;;;;;5097484;28;20181;-79
2023/07/15 03:30:58;;;;;;;5.73;3.40;;;17.90;99.90;;;;;;5098679;28;20291;-80
2023/07/15 03:33:24;;;;;;;3.47;3.27;;;17.90;99.90;;;;;;5096839;28;20183;-78
2023/07/15 03:35:50;;;;;;;3.53;3.23;;;17.80;99.90;;;;;;5096437;28;20166;-77
2023/07/15 03:38:15;;;;;;;3.37;3.17;;;17.80;99.90;;;;;;5101122;28;20173;-78
2023/07/15 03:40:41;;;;;;;3.83;3.63;;;17.80;99.90;;;;;;5116007;28;20173;-80
2023/07/15 03:43:07;;;;;;;3.53;3.30;;;17.80;99.90;;;;;;5117549;28;20197;-78
2023/07/15 03:45:32;;;;;;;3.47;3.27;;;17.80;99.90;;;;;;5099898;28;20181;-77
2023/07/15 03:47:58;;;;;;;3.20;2.70;;;17.80;99.90;;;;;;5102000;28;20209;-78
2023/07/15 03:50:24;;;;;;;3.67;3.07;;;17.90;99.90;;;;;;5098412;28;20239;-80
2023/07/15 03:52:50;;;;;;;3.10;2.90;;;17.80;99.90;;;;;;5098658;28;20177;-78
2023/07/15 03:55:16;;;;;;;3.73;3.40;;;17.80;99.90;;;;;;5119761;28;20224;-78
2023/07/15 03:57:42;;;;;;;3.40;3.20;;;17.80;99.90;;;;;;5098498;28;20205;-78
2023/07/15 04:00:17;;;;;;;4.73;3.30;;;17.80;99.90;;;;;;5096736;28;20583;-78
2023/07/15 04:02:49;;;;;;;3.37;3.17;;;17.80;99.90;;;;;;5099899;28;20160;-80
2023/07/15 04:05:15;;;;;;;3.20;2.90;;;17.80;99.90;;;;;;5099769;28;20174;-81
2023/07/15 04:07:41;;;;;;;3.23;3.03;;;17.80;99.90;;;;;;5109269;28;20186;-80
2023/07/15 04:10:07;;;;;;;3.10;2.90;;;17.80;99.90;;;;;;5097145;28;20169;-79
2023/07/15 04:12:33;;;;;;;4.90;2.80;;;17.90;99.90;;;;;;5096458;28;20668;-78
2023/07/15 04:14:58;;;;;;;3.33;2.97;;;17.90;99.90;;;;;;5095720;28;20178;-77
2023/07/15 04:17:24;;;;;;;3.40;3.20;;;18.00;99.90;;;;;;5096144;28;20260;-79
2023/07/15 04:19:50;;;;;;;3.40;3.20;;;18.10;99.90;;;;;;5095953;28;20209;-77
2023/07/15 04:22:17;;;;;;;3.40;3.20;;;18.10;99.90;;;;;;5097903;28;20188;-77
2023/07/15 04:24:43;;;;;;;3.30;3.10;;;18.10;99.90;;;;;;5098053;28;20166;-77
2023/07/15 04:27:08;;;;;;;3.33;3.13;;;18.20;99.90;;;;;;5098399;28;20186;-77
2023/07/15 04:29:34;;;;;;;4.50;3.20;;;18.30;99.90;;;;;;5098977;28;20184;-79
2023/07/15 04:32:00;;;;;;;4.47;3.20;;;18.30;99.90;;;;;;5114452;28;20205;-79
2023/07/15 04:34:26;;;;;;;2.83;2.70;;;18.30;99.90;;;;;;5109134;28;20185;-78
2023/07/15 04:36:51;;;;;;;3.60;3.30;;;18.40;99.90;;;;;;5098154;28;20179;-77
2023/07/15 04:39:17;;;;;;;5.87;3.40;;;18.40;99.90;;;;;;5098608;28;20231;-78
2023/07/15 04:41:43;;;;;;;3.50;3.20;;;18.50;99.90;;;;;;5096476;28;20445;-80
2023/07/15 04:44:09;;;;;;;3.50;3.30;;;18.60;99.90;;;;;;5098119;28;20168;-79
2023/07/15 04:46:37;;;;;;;3.33;3.13;;;18.60;99.90;;;;;;5095143;28;20181;-78
2023/07/15 04:49:03;;;;;;;3.30;3.10;;;18.70;99.90;;;;;;5094833;28;20167;-77
2023/07/15 04:51:28;;;;;;;3.70;3.40;;;18.80;99.90;;;;;;5094536;28;20201;-78
2023/07/15 04:53:56;;;;;;;3.60;3.40;;;18.90;99.90;;;;;;5094647;28;20261;-77
2023/07/15 04:56:22;;;;;;;4.67;3.30;;;18.90;99.90;;;;;;5094979;28;20201;-76
2023/07/15 04:58:48;;;;;;;3.77;3.53;;;19.00;99.90;;;;;;5094233;28;20202;-80
2023/07/15 05:01:13;;;;;;;3.93;3.20;;;19.10;99.90;;;;;;5108463;28;20190;-76
2023/07/15 05:03:40;;;;;;;4.70;3.30;;;19.10;99.90;;;;;;5097803;28;20167;-78
2023/07/15 05:06:08;;;;;;;3.63;3.43;;;19.20;99.90;;;;;;5094725;28;20278;-77
2023/07/15 05:08:34;;;;;;;3.80;3.50;;;19.30;99.90;;;;;;5094430;28;20174;-76
2023/07/15 05:10:59;;;;;;;4.63;3.40;;;19.40;99.90;;;;;;5094583;28;20210;-76
2023/07/15 05:13:25;;;;;;;3.73;3.43;;;19.40;99.90;;;;;;5093514;28;20179;-76
2023/07/15 05:15:51;;;;;;;3.30;3.00;;;19.60;99.90;;;;;;5093345;28;20788;-76
2023/07/15 05:18:17;;;;;;;3.43;3.23;;;19.70;99.90;;;;;;5094398;28;20178;-76
2023/07/15 05:20:43;;;;;;;3.30;3.00;;;19.70;99.90;;;;;;5096184;28;20174;-79
2023/07/15 05:23:09;;;;;;;4.00;3.30;;;19.70;99.90;;;;;;5112725;28;20181;-79
2023/07/15 05:25:35;;;;;;;3.30;3.10;;;19.80;99.90;;;;;;5094084;28;20641;-81
2023/07/15 05:28:00;;;;;;;3.33;3.13;;;19.80;99.90;;;;;;5099178;28;20194;-79
2023/07/15 05:30:26;;;;;;;4.20;2.97;;;19.80;99.90;;;;;;5116610;28;20186;-79
2023/07/15 05:32:52;;;;;;;3.50;3.20;;;19.80;99.90;;;;;;5099167;28;20181;-79
2023/07/15 05:35:18;;;;;;;3.63;3.37;;;19.90;99.90;;;;;;5115163;28;20179;-77
2023/07/15 05:37:45;;;;;;;3.33;3.20;;;20.00;99.90;;;;;;5094557;28;20175;-78
2023/07/15 05:40:12;;;;;;;4.10;3.30;;;19.90;99.90;;;;;;5094212;28;20182;-78
2023/07/15 05:42:41;;;;;;;3.40;3.20;;;19.90;99.90;;;;;;5093971;28;20170;-79
2023/07/15 05:45:08;;;;;;;4.10;3.40;;;20.00;99.90;;;;;;5092515;28;20228;-79
2023/07/15 05:47:34;;;;;;;3.50;3.27;;;20.10;99.90;;;;;;5094153;28;20178;-79
2023/07/15 05:50:01;;;;;;;3.87;3.20;;;20.20;99.90;;;;;;5093848;28;20257;-78
2023/07/15 05:52:27;;;;;;;3.97;3.40;;;20.30;99.90;;;;;;5093589;28;20209;-78
2023/07/15 05:55:12;;;;;;;3.33;3.13;;;20.30;99.90;;;;;;5091350;27;20511;-79
2023/07/15 05:57:38;;;;;;;3.70;3.40;;;20.30;99.90;;;;;;5091318;28;20979;-79
2023/07/15 06:00:08;;;;;;;3.80;3.50;;;20.50;99.90;;;;;;5091178;28;20249;-78
2023/07/15 06:02:34;;;;;;;3.50;2.97;;;20.50;99.90;;;;;;5091336;28;20276;-79
2023/07/15 06:05:00;;;;;;;3.60;3.30;;;20.60;99.90;;;;;;5091049;28;20529;-78
2023/07/15 06:07:25;;;;;;;3.37;3.23;;;20.70;99.90;;;;;;5092118;28;20178;-79
2023/07/15 06:09:52;;;;;;;4.63;4.23;;;20.70;99.90;;;;;;5095271;28;20162;-78
2023/07/15 06:12:17;;;;;;;3.00;2.80;;;20.80;99.90;;;;;;5096691;28;20166;-80
2023/07/15 06:14:43;;;;;;;3.67;3.37;;;20.90;99.90;;;;;;5091172;28;20206;-79
2023/07/15 06:17:09;;;;;;;3.10;3.00;;;21.00;99.90;;;;;;5090915;28;20170;-79
2023/07/15 06:19:36;;;;;;;4.37;4.03;;;21.10;99.90;;;;;;5091022;28;20177;-79
2023/07/15 06:22:02;;;;;;;3.80;3.50;;;21.20;99.90;;;;;;5090671;28;20163;-78
2023/07/15 06:24:28;;;;;;;3.53;3.33;;;21.30;99.90;;;;;;5089365;28;20640;-78
2023/07/15 06:26:54;;;;;;;4.10;3.80;;;21.40;99.90;;;;;;5090657;28;20521;-77
2023/07/15 06:29:20;;;;;;;4.03;3.77;;;21.40;99.90;;;;;;5090856;28;20183;-79
2023/07/15 06:31:45;;;;;;;3.37;3.00;;;21.50;99.90;;;;;;5092508;28;20167;-77
2023/07/15 06:34:11;;;;;;;3.30;3.10;;;21.60;99.90;;;;;;5092230;28;20202;-77
2023/07/15 06:36:37;;;;;;;4.47;3.10;;;21.70;99.90;;;;;;5091279;28;20187;-79
2023/07/15 06:39:03;;;;;;;3.40;3.10;;;21.70;99.90;;;;;;5093563;28;20170;-78
2023/07/15 06:41:29;;;;;;;3.43;3.13;;;21.80;99.90;;;;;;5094698;28;20163;-78
2023/07/15 06:43:54;;;;;;;4.07;3.73;;;21.90;99.90;;;;;;5096878;28;20183;-78
2023/07/15 06:46:20;;;;;;;3.70;3.40;;;22.00;99.90;;;;;;5098584;28;20163;-79
2023/07/15 06:48:48;;;;;;;3.70;3.40;;;22.10;99.90;;;;;;5108430;28;20320;-78
2023/07/15 06:51:16;;;;;;;3.40;3.10;;;22.20;99.90;;;;;;5099574;28;20244;-78
2023/07/15 06:53:41;;;;;;;3.57;3.27;;;22.30;99.90;;;;;;5093227;28;20681;-78
2023/07/15 06:56:07;;;;;;;3.97;2.97;;;22.40;99.90;;;;;;5091753;28;20220;-78
2023/07/15 06:58:33;;;;;;;3.30;3.10;;;22.40;99.90;;;;;;5095221;28;20197;-80
2023/07/15 07:00:59;;;;;;;3.23;3.13;;;22.50;99.90;;;;;;5098052;28;20181;-80
2023/07/15 07:03:24;;;;;;;3.50;3.20;;;22.50;99.90;;;;;;5106753;28;20239;-79
2023/07/15 07:05:50;;;;;;;3.72;2.90;;;22.70;99.90;;;;;;5084270;28;20650;-78
2023/07/15 07:08:16;;;;;;;3.50;3.30;;;22.90;99.90;;;;;;5076918;28;20178;-77
2023/07/15 07:10:42;;;;;;;3.33;3.10;;;23.10;99.90;;;;;;5076018;28;20175;-78
2023/07/15 07:13:08;;;;;;;3.70;3.15;;;23.10;99.90;;;;;;5094380;28;20195;-79
2023/07/15 07:15:34;;;;;;;3.27;3.07;;;23.10;99.90;;;;;;5089560;28;20237;-79
2023/07/15 07:18:00;;;;;;;3.42;3.20;;;23.10;99.90;;;;;;5076554;28;20533;-79
2023/07/15 07:20:26;;;;;;;3.00;2.90;;;23.20;99.90;;;;;;5077424;28;20182;-80
2023/07/15 07:22:51;;;;;;;3.05;2.85;;;23.30;99.90;;;;;;5091001;28;20194;-79
2023/07/15 07:25:17;;;;;;;3.10;2.90;;;23.40;99.90;;;;;;5082941;28;20186;-78
2023/07/15 07:27:43;;;;;;;3.40;3.20;;;23.50;99.90;;;;;;5077809;28;20261;-77
2023/07/15 07:30:09;;;;;;;4.63;3.10;;;23.60;99.90;;;;;;5075398;28;20175;-78
2023/07/15 07:32:35;;;;;;;3.20;3.00;;;23.80;99.90;;;;;;5075362;28;20213;-78
2023/07/15 07:35:00;;;;;;;3.30;3.00;;;23.90;99.90;;;;;;5055731;28;20211;-80
2023/07/15 07:37:26;;;;;;;3.55;3.33;;;23.90;99.90;;;;;;5070700;28;20179;-77
2023/07/15 07:39:52;;;;;;;3.85;3.30;;;24.00;99.90;;;;;;5075797;28;20228;-79
2023/07/15 07:42:17;;;;;;;3.38;3.17;;;24.10;99.90;;;;;;5075251;28;20224;-79
2023/07/15 07:44:43;;;;;;;3.60;3.40;;;24.10;99.90;;;;;;5075867;28;20214;-80
2023/07/15 07:47:09;;;;;;;3.17;2.97;;;24.20;99.90;;;;;;5075659;28;20163;-79
2023/07/15 07:49:35;;;;;;;3.40;3.10;;;24.30;99.90;;;;;;5075763;28;20254;-81
2023/07/15 07:52:00;;;;;;;3.60;3.40;;;24.40;99.90;;;;;;5073957;28;20179;-79
2023/07/15 07:54:26;;;;;;;3.88;3.55;;;24.50;99.90;;;;;;5073798;28;20288;-78
2023/07/15 07:56:52;;;;;;;4.35;3.00;;;24.30;99.90;;;;;;5075168;28;20170;-79
2023/07/15 07:59:18;;;;;;;4.25;3.30;;;24.40;99.90;;;;;;5075317;28;20174;-80
2023/07/15 08:01:45;;;;;;;3.40;3.20;;;24.40;99.90;;;;;;5075656;28;20198;-80
2023/07/15 08:04:10;;;;;;;3.75;3.55;;;24.60;99.90;;;;;;5075269;28;20709;-78
2023/07/15 08:06:36;;;;;;;4.28;3.88;;;24.60;99.90;;;;;;5075348;28;20261;-78
2023/07/15 08:09:02;;;;;;;3.60;3.40;;;24.60;99.90;;;;;;5075013;28;20167;-76
2023/07/15 08:11:27;;;;;;;3.67;3.28;;;24.60;99.90;;;;;;5075209;28;20168;-76
2023/07/15 08:13:53;;;;;;;4.72;3.53;;;24.60;99.90;;;;;;5075121;28;20203;-77
2023/07/15 08:16:38;;;;;;;3.40;3.20;;;24.60;99.90;;;;;;5074594;28;20167;-75
2023/07/15 08:19:06;;;;;;;3.80;3.53;;;24.60;99.90;;;;;;5079003;28;20185;-77
2023/07/15 08:21:32;;;;;;;3.28;3.08;;;24.70;99.90;;;;;;5075121;28;20254;-79
2023/07/15 08:23:59;;;;;;;3.22;3.05;;;24.80;99.90;;;;;;5075225;28;20183;-79
2023/07/15 08:26:25;;;;;;;3.15;2.95;;;24.90;99.90;;;;;;5075384;28;20190;-78
2023/07/15 08:28:51;;;;;;;3.35;3.15;;;24.90;99.90;;;;;;5075214;28;20206;-78
2023/07/15 08:31:17;;;;;;;3.58;3.28;;;25.00;99.90;;;;;;5075880;28;20226;-79
2023/07/15 08:33:43;;;;;;;3.28;3.05;;;25.10;99.90;;;;;;5081757;28;20211;-78
2023/07/15 08:36:09;;;;;;;3.42;3.28;;;25.10;99.90;;;;;;5081261;28;20178;-79
2023/07/15 08:38:35;;;;;;;4.63;4.28;;;25.20;99.90;;;;;;5075263;28;20213;-78
2023/07/15 08:41:02;;;;;;;3.42;3.20;;;25.30;99.90;;;;;;5082688;28;20203;-78
2023/07/15 08:43:31;;;;;;;3.55;3.25;;;25.40;99.90;;;;;;5083714;28;20199;-77
2023/07/15 08:46:02;;;;;;;3.85;3.47;;;25.50;99.90;;;;;;5074938;28;20199;-79
2023/07/15 08:48:28;;;;;;;3.72;3.50;;;25.60;99.90;;;;;;5075577;28;20221;-79
2023/07/15 08:50:59;;;;;;;3.58;3.30;;;25.60;99.90;;;;;;5075485;28;20175;-79
2023/07/15 08:53:28;;;;;;;3.80;3.40;;;25.80;99.90;;;;;;5089309;28;20277;-78
2023/07/15 08:55:57;;;;;;;4.32;3.00;;;25.80;99.90;;;;;;5083536;28;20182;-77
2023/07/15 08:58:24;;;;;;;3.05;2.90;;;25.90;99.90;;;;;;5080113;28;20160;-79
2023/07/15 09:00:51;;;;;;;4.10;3.83;;;26.00;99.90;;;;;;5077443;28;20171;-77
2023/07/15 09:03:17;;;;;;;3.15;2.95;;;26.10;99.90;;;;;;5083506;28;20155;-76
2023/07/15 09:05:43;;;;;;;3.55;3.25;;;26.10;99.90;;;;;;5096216;28;20198;-76
2023/07/15 09:08:11;;;;;;;3.95;3.65;;;26.10;99.90;;;;;;5076302;28;20308;-76
2023/07/15 09:10:52;;;;;;;3.85;3.60;;;26.10;99.90;;;;;;5075130;28;20285;-77
2023/07/15 09:13:28;;;;;;;3.55;3.30;;;26.10;99.90;;;;;;5073978;28;20210;-76
2023/07/15 09:15:55;;;;;;;3.60;3.30;;;26.10;99.90;;;;;;5091323;28;20154;-78
2023/07/15 09:18:22;;;;;;;3.08;2.88;;;26.10;99.90;;;;;;5089338;28;20167;-77
2023/07/15 09:20:48;;;;;;;3.65;3.45;;;26.10;99.90;;;;;;5073360;28;20171;-76
2023/07/15 09:23:14;;;;;;;3.42;3.22;;;26.10;99.90;;;;;;5074293;28;20301;-75
2023/07/15 09:25:50;;;;;;;3.88;3.42;;;26.10;99.90;;;;;;5074239;28;20179;-75
2023/07/15 09:28:18;;;;;;;3.65;3.40;;;26.20;99.90;;;;;;5074077;28;20521;-77
2023/07/15 09:30:43;;;;;;;3.65;3.45;;;26.10;99.90;;;;;;5076182;28;20627;-78
2023/07/15 09:33:28;;;;;;;3.70;3.40;;;26.10;99.90;;;;;;5076170;28;20228;-75
2023/07/15 09:35:53;;;;;;;3.38;3.08;;;26.10;99.90;;;;;;5073402;28;20182;-77
2023/07/15 09:38:20;;;;;;;3.50;3.20;;;26.20;99.90;;;;;;5072928;28;20624;-75
2023/07/15 09:40:46;;;;;;;3.10;2.90;;;26.30;99.90;;;;;;5073530;28;20688;-76
2023/07/15 09:43:12;;;;;;;3.22;3.03;;;26.30;99.90;;;;;;5073732;28;20171;-76
2023/07/15 09:45:40;;;;;;;3.25;3.05;;;26.40;99.90;;;;;;5073524;28;20186;-77
2023/07/15 09:48:17;;;;;;;3.33;3.10;;;26.50;99.90;;;;;;5072755;28;20175;-76
2023/07/15 09:50:43;;;;;;;3.50;3.30;;;26.60;99.90;;;;;;5073840;28;20699;-76
2023/07/15 09:53:10;;;;;;;3.50;3.30;;;26.70;99.90;;;;;;5073601;28;20281;-78
2023/07/15 09:55:37;;;;;;;4.15;3.22;;;26.80;99.90;;;;;;5073920;28;20163;-76
2023/07/15 09:58:23;;;;;;;4.30;3.00;;;26.80;99.90;;;;;;5073434;28;20622;-75
2023/07/15 10:00:56;;;;;;;3.40;3.10;;;26.90;99.90;;;;;;5073520;28;20749;-77
2023/07/15 10:03:47;;;;;;;3.50;3.10;;;26.90;99.90;;;;;;5073423;28;20248;-75
2023/07/15 10:06:14;;;;;;;3.30;3.20;;;27.00;99.90;;;;;;5073459;28;20167;-78
2023/07/15 10:08:40;;;;;;;3.33;3.15;;;27.20;99.90;;;;;;5073676;28;20650;-80
2023/07/15 10:11:08;;;;;;;3.38;3.10;;;27.30;99.90;;;;;;5073567;28;20168;-77
2023/07/15 10:13:35;;;;;;;3.10;2.90;;;27.30;99.90;;;;;;5073345;28;20206;-75
2023/07/15 10:16:02;;;;;;;3.38;2.80;;;27.30;99.90;;;;;;5073972;28;20175;-78
2023/07/15 10:18:33;;;;;;;2.95;2.83;;;27.20;99.90;;;;;;5080499;28;20167;-75
2023/07/15 10:21:04;;;;;;;2.83;2.72;;;27.20;99.90;;;;;;5079018;28;20179;-80
2023/07/15 10:23:31;;;;;;;3.60;2.70;;;27.20;99.90;;;;;;5085211;28;20569;-77
2023/07/15 10:26:10;;;;;;;2.95;2.72;;;27.30;99.90;;;;;;5078187;28;20199;-76
2023/07/15 10:28:41;;;;;;;2.90;2.72;;;27.20;99.90;;;;;;5073542;28;20167;-76
2023/07/15 10:31:11;;;;;;;2.80;2.60;;;27.30;99.90;;;;;;5076483;28;20159;-78
2023/07/15 10:33:54;;;;;;;3.30;2.92;;;27.30;99.90;;;;;;5092500;28;20217;-76
2023/07/15 10:36:45;;;;;;;2.70;2.60;;;27.40;99.90;;;;;;5073938;28;20217;-76
2023/07/15 10:39:20;;;;;;;2.75;2.65;;;27.40;99.90;;;;;;5075461;28;20191;-78
2023/07/15 10:41:51;;;;;;;3.13;2.92;;;27.40;99.90;;;;;;5079422;28;20690;-77
2023/07/15 10:44:18;;;;;;;2.80;2.70;;;27.50;99.90;;;;;;5077184;28;20622;-79
2023/07/15 10:46:45;;;;;;;3.33;3.10;;;27.60;99.90;;;;;;5076488;28;20166;-77
2023/07/15 10:49:11;;;;;;;3.08;2.88;;;27.60;99.90;;;;;;5076780;28;20186;-77
2023/07/15 10:51:38;;;;;;;3.03;2.88;;;27.70;99.90;;;;;;5077292;28;20163;-75
2023/07/15 10:54:04;;;;;;;2.63;2.53;;;27.70;99.90;;;;;;5077930;28;20223;-79
2023/07/15 10:56:30;;;;;;;2.88;2.67;;;27.80;99.90;;;;;;5084383;28;20171;-78
2023/07/15 10:58:57;;;;;;;3.47;2.90;;;27.90;99.90;;;;;;5075291;28;20183;-77
2023/07/15 11:01:23;;;;;;;3.03;2.72;;;27.90;99.90;;;;;;5074725;28;20635;-77
2023/07/15 11:03:50;;;;;;;3.58;3.28;;;28.00;99.90;;;;;;5075860;28;20178;-76
2023/07/15 11:06:24;;;;;;;2.92;2.80;;;27.90;99.90;;;;;;5080098;28;20178;-78
2023/07/15 11:08:50;;;;;;;2.70;2.60;;;27.90;99.90;;;;;;5079569;28;20163;-78
2023/07/15 11:11:17;;;;;;;2.78;2.67;;;27.90;99.90;;;;;;5077844;28;20171;-77
2023/07/15 11:13:43;;;;;;;3.40;3.10;;;28.00;99.90;;;;;;5074899;28;20203;-77
2023/07/15 11:16:09;;;;;;;2.58;2.47;;;28.00;99.90;;;;;;5074949;28;20179;-75
2023/07/15 11:18:35;;;;;;;2.90;2.80;;;28.10;99.90;;;;;;5076420;28;20297;-76
2023/07/15 11:21:01;;;;;;;2.92;2.70;;;28.10;99.90;;;;;;5085648;28;20183;-77
2023/07/15 11:23:28;;;;;;;3.22;2.90;;;28.10;99.90;;;;;;5096434;28;20187;-77
2023/07/15 11:25:54;;;;;;;2.67;2.53;;;28.20;99.90;;;;;;5078002;28;20505;-77
2023/07/15 11:28:21;;;;;;;2.80;2.60;;;28.20;99.90;;;;;;5074782;28;20179;-78
2023/07/15 11:30:48;;;;;;;2.33;2.28;;;28.30;99.90;;;;;;5096517;28;20259;-77
2023/07/15 11:33:14;;;;;;;2.80;2.60;;;28.40;99.90;;;;;;5093641;28;20198;-77
2023/07/15 11:35:41;;;;;;;2.58;2.45;;;28.40;99.90;;;;;;5088205;28;20220;-76
2023/07/15 11:38:10;;;;;;;2.40;2.30;;;28.40;99.90;;;;;;5097787;28;20185;-77
2023/07/15 11:40:40;;;;;;;2.50;2.40;;;28.50;99.90;;;;;;5090452;28;20190;-76
2023/07/15 11:43:06;;;;;;;2.72;2.55;;;28.50;99.90;;;;;;5071128;28;20171;-77
2023/07/15 11:45:33;;;;;;;2.80;2.70;;;28.60;99.90;;;;;;5083362;28;20541;-77
2023/07/15 11:47:59;;;;;;;2.47;2.38;;;28.60;99.90;;;;;;5078373;28;20528;-78
2023/07/15 11:50:27;;;;;;;2.80;2.60;;;28.60;99.90;;;;;;5086223;28;20175;-77
2023/07/15 11:52:55;;;;;;;2.67;2.50;;;28.70;99.90;;;;;;5096353;28;20177;-80
2023/07/15 11:55:24;;;;;;;2.78;2.60;;;28.60;99.90;;;;;;5098746;28;20169;-78
2023/07/15 11:57:51;;;;;;;2.58;2.47;;;28.60;99.90;;;;;;5096240;28;20505;-76
2023/07/15 12:00:34;;;;;;;2.78;2.67;;;28.60;99.90;;;;;;5100364;28;20205;-78
2023/07/15 12:03:08;;;;;;;2.50;2.40;;;28.50;99.90;;;;;;5083754;28;20643;-76
2023/07/15 12:05:43;;;;;;;2.50;2.40;;;28.60;99.90;;;;;;5073690;28;20190;-75
2023/07/15 12:08:14;;;;;;;2.40;2.30;;;28.50;99.90;;;;;;5084100;28;20151;-76
2023/07/15 12:10:50;;;;;;;2.63;2.53;;;28.60;99.90;;;;;;5077483;28;20534;-75
2023/07/15 12:13:16;;;;;;;2.63;2.53;;;28.60;99.90;;;;;;5089748;28;20213;-79
2023/07/15 12:15:42;;;;;;;2.63;2.53;;;28.60;99.90;;;;;;5081120;28;20642;-80
2023/07/15 12:18:08;;;;;;;2.90;2.60;;;28.70;99.90;;;;;;5076778;28;20180;-75
2023/07/15 12:20:33;;;;;;;2.50;2.40;;;28.60;99.90;;;;;;5075120;28;20185;-76
2023/07/15 12:22:59;;;;;;;2.63;2.40;;;28.60;99.90;;;;;;5074717;28;20167;-78
2023/07/15 12:25:25;;;;;;;2.72;2.63;;;28.60;99.90;;;;;;5074651;28;20391;-77
2023/07/15 12:27:51;;;;;;;2.83;2.63;;;28.60;99.90;;;;;;5074399;28;20171;-76
2023/07/15 12:30:17;;;;;;;2.50;2.40;;;28.60;99.90;;;;;;5074641;28;20189;-76
2023/07/15 12:32:43;;;;;;;2.70;2.60;;;28.60;99.90;;;;;;5075481;28;21043;-75
2023/07/15 12:35:08;;;;;;;2.50;2.40;;;28.50;99.90;;;;;;5076639;28;20301;-75
2023/07/15 12:37:38;;;;;;;2.63;2.42;;;28.60;99.90;;;;;;5078645;28;20195;-78
2023/07/15 12:40:05;;;;;;;2.60;2.50;;;28.60;99.90;;;;;;5075479;28;20179;-75
2023/07/15 12:42:35;;;;;;;2.70;2.50;;;28.60;99.90;;;;;;5080622;28;20193;-78
2023/07/15 12:45:01;;;;;;;3.03;2.70;;;28.60;99.90;;;;;;5077942;28;20167;-78
2023/07/15 12:47:27;;;;;;;2.40;2.30;;;28.70;99.90;;;;;;5075896;28;20167;-75
2023/07/15 12:49:53;;;;;;;2.85;2.75;;;28.70;99.90;;;;;;5074451;28;20182;-76